Terminal Aerodrome Forecast
Issued by NWS Norman, OK

Home | Current Version | Previous Version | Text Only | Print | Product List | Glossary On
Versions: 1 2 3 4 5 6 7 8 9 10 11 12 13 14 15 16 17 18 19 20 21 22 23 24 25 26 27 28 29 30 31
000
FTUS44 KOUN 061120
TAFOKC
TAF
KOKC 061120Z 0612/0712 18016G21KT P6SM BKN009 OVC020
     FM061500 16016G23KT P6SM BKN030
     FM070000 16012G19KT P6SM BKN050
      TEMPO 0704/0708 6SM -TSRA BKN015CB
     FM070800 17013KT P6SM OVC012=

USA.gov is the U.S. government's official web portal to all federal, state and local government web resources and services.